East Lansing, MI

8:26 PM EDT on October 31, 2014 (GMT -0400)
Whitehills Lakes | Change Station
CLOSE
Current Station
Personal Weather Station
Location: East Lansing, MI
Elevation: 856 ft
Nearby Weather Stations
Active Advisory: Wind Advisory Active Notice: Record Report, Public Information Statement

Elev 856 ft 42.77 °N, 84.45 °W | Updated 17 seconds ago

Overcast
Overcast
33.3 °F
Feels Like 33 °F
N
0.0
Wind Variable Wind from ENE
Gusts 0.0 mph

Today
High -- | Low -- °F
--% Chance of Precip.
Yesterday
High -- | Low -- °F
Precip. -- in
8:10 AM 6:31 PM
First Quarter, 60% visible
Pressure 30.19 in
Visibility 10.0 miles
Clouds Mostly Cloudy 2900 ft
Overcast 3600 ft
Windchill 33 °F
Dew Point 26 °F
Humidity 74%
Rainfall 1.45 in
Snow Depth Not available.
UV 0 out of 12
Pollen .10 out of 12
Air Quality Not available.
Flu Activity Not available.
METAR KLAN 312353Z 35018G24KT 10SM BKN029 OVC036 01/M04 A3016 RMK AO2 PK WND 35026/2336 SLP222 60000 I6000 T00111039 10028 20011 51034

More Conditions Fewer Conditions

Pressure 30.19 in
Visibility 10.0 miles
Clouds Mostly Cloudy 2900 ft
Overcast 3600 ft
Windchill 33 °F
Dew Point 26 °F
Humidity 74%
Rainfall 1.45 in
Snow Depth Not available.
UV 0 out of 12
Pollen .10 out of 12
Air Quality Not available.
Flu Activity Not available.
METAR KLAN 312353Z 35018G24KT 10SM BKN029 OVC036 01/M04 A3016 RMK AO2 PK WND 35026/2336 SLP222 60000 I6000 T00111039 10028 20011 51034

More Conditions Fewer Conditions

10-Day Weather Forecast

Almanac

Astronomy

Oct. 31, 2014 Rise Set
Actual Time
Civil Twilight
Nautical Twilight
Astronomical Twilight
Moon
Length of Visible Light
Length of Day
Tomorrow will be .
, % of the Moon is Illuminated

Today's Extremes

State Highs State Lows

Community

WunderPhotos

Upload Photos

1,766,792 photos uploaded!

WunderBlogs® & News

Nearby

Air Quality

  Air Quality AQ Index Pollutant
Not available.

Snow Depth

Station Depth Elevation

Earthquake Activity

City Distance Mag. Time & Date
Minimum magnitude displayed is 2.5.

Coastal Water Temperatures

Place Temperature

Nearby Weather Stations